Time;durP1;ratioP1;P1;durP2;ratioP2;P2;SDS_P1;SDS_P2;PMS_P1;PMS_P2;Temp;Humidity;BMP_temperature;BMP_pressure;BME280_temperature;BME280_humidity;BME280_pressure;Samples;Min_cycle;Max_cycle;Signal;HPM_P1;HPM_P2
2022/03/31 00:00:41;;;;;;;13.10;4.43;;;;;;;-3.82;61.23;98993.53;5992275;23;20480;-64
2022/03/31 00:03:13;;;;;;;15.60;4.90;;;;;;;-3.79;61.62;99003.09;6039129;23;20027;-66
2022/03/31 00:05:39;;;;;;;18.27;4.10;;;;;;;-3.82;61.85;99004.09;6015690;23;20034;-64
2022/03/31 00:08:07;;;;;;;16.77;4.93;;;;;;;-3.80;62.02;99011.94;5992343;23;20026;-64
2022/03/31 00:10:38;;;;;;;14.70;4.30;;;;;;;-3.79;61.96;99030.38;6015089;23;20027;-64
2022/03/31 00:13:06;;;;;;;14.27;5.00;;;;;;;-3.85;61.99;99017.47;6015908;23;20059;-65
2022/03/31 00:15:33;;;;;;;14.80;4.50;;;;;;;-3.91;62.07;99020.44;6016358;23;20026;-67
2022/03/31 00:18:00;;;;;;;15.13;4.78;;;;;;;-3.91;61.37;99023.91;6016400;23;20018;-66
2022/03/31 00:20:27;;;;;;;14.00;4.97;;;;;;;-3.95;61.83;99019.72;5992756;23;20363;-65
2022/03/31 00:22:53;;;;;;;16.10;5.25;;;;;;;-3.95;61.95;99024.13;6015301;23;20105;-65
2022/03/31 00:25:19;;;;;;;20.45;5.70;;;;;;;-4.00;62.17;99020.88;5992177;23;20027;-65
2022/03/31 00:27:45;;;;;;;21.20;6.90;;;;;;;-4.10;62.92;99009.03;6015472;23;20424;-66
2022/03/31 00:30:13;;;;;;;16.13;6.38;;;;;;;-3.99;62.44;99033.13;5992489;23;20027;-66
2022/03/31 00:32:40;;;;;;;18.15;6.32;;;;;;;-4.00;62.40;99031.44;6039390;23;20482;-65
2022/03/31 00:35:07;;;;;;;15.45;5.90;;;;;;;-4.05;63.31;99036.94;5991893;23;20082;-65
2022/03/31 00:37:33;;;;;;;36.42;10.85;;;;;;;-4.05;63.32;99031.66;6015246;23;20037;-66
2022/03/31 00:39:59;;;;;;;30.23;9.68;;;;;;;-4.15;63.55;99012.78;6015830;23;20022;-71
2022/03/31 00:42:25;;;;;;;27.77;9.48;;;;;;;-4.03;63.42;99029.78;5991827;23;20067;-65
2022/03/31 00:44:52;;;;;;;24.33;7.32;;;;;;;-4.02;64.08;99030.63;6015445;23;20038;-65
2022/03/31 00:47:18;;;;;;;19.38;6.50;;;;;;;-4.01;64.14;99035.00;6015239;23;20023;-65
2022/03/31 00:49:44;;;;;;;18.98;5.63;;;;;;;-4.04;64.07;99036.00;6015874;23;20031;-64
2022/03/31 00:52:10;;;;;;;15.68;5.75;;;;;;;-4.03;63.98;99034.22;6038998;23;20030;-65
2022/03/31 00:54:38;;;;;;;17.30;5.80;;;;;;;-4.00;64.46;99031.44;6038722;23;20033;-66
2022/03/31 00:57:05;;;;;;;18.75;4.97;;;;;;;-4.03;64.35;99035.06;6015904;23;20368;-65
2022/03/31 00:59:31;;;;;;;16.08;5.78;;;;;;;-3.94;64.47;99041.69;6015652;23;20377;-65
2022/03/31 01:01:59;;;;;;;14.65;5.00;;;;;;;-3.93;64.61;99043.41;6015451;23;20110;-66
2022/03/31 01:04:27;;;;;;;16.15;5.25;;;;;;;-3.94;64.06;99045.19;6015407;23;20343;-65
2022/03/31 01:06:53;;;;;;;18.75;4.95;;;;;;;-3.99;64.73;99051.59;5992672;23;20033;-65
2022/03/31 01:09:19;;;;;;;16.55;5.82;;;;;;;-4.04;64.81;99036.00;6015652;23;20034;-65
2022/03/31 01:11:48;;;;;;;18.10;6.93;;;;;;;-4.07;64.93;99046.69;6015630;23;20042;-66
2022/03/31 01:14:15;;;;;;;16.58;6.28;;;;;;;-4.06;65.15;99042.28;5992762;23;20042;-65
2022/03/31 01:16:41;;;;;;;14.25;5.70;;;;;;;-4.08;65.51;99044.16;5992303;23;20081;-65
2022/03/31 01:19:11;;;;;;;16.98;6.45;;;;;;;-4.16;65.65;99042.75;6015179;23;20358;-65
2022/03/31 01:21:38;;;;;;;21.20;7.57;;;;;;;-4.31;66.23;99011.81;5992087;23;20476;-65
2022/03/31 01:24:06;;;;;;;17.25;6.88;;;;;;;-4.30;66.22;99013.53;6039127;23;20031;-65
2022/03/31 01:26:34;;;;;;;19.92;7.05;;;;;;;-4.18;66.34;99043.72;6039483;23;20071;-64
2022/03/31 01:29:00;;;;;;;20.30;6.55;;;;;;;-4.19;66.18;99053.44;6015099;23;20074;-65
2022/03/31 01:31:26;;;;;;;22.15;7.43;;;;;;;-4.28;67.18;99040.66;6015153;23;20110;-63
2022/03/31 01:33:53;;;;;;;19.48;6.50;;;;;;;-4.29;67.31;99041.59;6015451;23;20030;-65
2022/03/31 01:36:20;;;;;;;16.27;6.35;;;;;;;-4.32;67.46;99040.91;6015244;23;20034;-65
2022/03/31 01:38:47;;;;;;;13.32;4.47;;;;;;;-4.33;67.84;99045.31;5993540;23;20090;-69
2022/03/31 01:41:13;;;;;;;12.13;4.55;;;;;;;-4.36;68.16;99037.56;6040733;23;20019;-65
2022/03/31 01:43:39;;;;;;;15.30;4.93;;;;;;;-4.39;68.91;99045.59;6016569;23;20118;-65
2022/03/31 01:46:08;;;;;;;11.85;4.30;;;;;;;-4.44;68.92;99047.63;5993215;23;20377;-65
2022/03/31 01:48:34;;;;;;;12.38;3.75;;;;;;;-4.43;68.88;99049.31;6016852;23;20362;-66
2022/03/31 01:51:04;;;;;;;10.27;3.88;;;;;;;-4.48;69.18;99046.91;5988661;23;20380;-65
2022/03/31 01:53:32;;;;;;;11.50;4.45;;;;;;;-4.48;69.55;99059.25;6035417;23;20384;-65
2022/03/31 01:55:58;;;;;;;13.60;4.55;;;;;;;-4.51;69.71;99062.03;5988614;23;20069;-65
2022/03/31 01:58:24;;;;;;;16.55;4.78;;;;;;;-4.50;69.97;99061.09;5988144;23;20033;-66
2022/03/31 02:00:52;;;;;;;15.90;4.82;;;;;;;-4.55;70.68;99057.81;5988558;23;20113;-65
2022/03/31 02:03:18;;;;;;;15.30;5.10;;;;;;;-4.58;70.61;99060.59;5988922;23;20054;-65
2022/03/31 02:05:45;;;;;;;15.50;4.78;;;;;;;-4.64;70.85;99062.59;5988970;23;20129;-65
2022/03/31 02:08:11;;;;;;;16.65;5.20;;;;;;;-4.64;71.27;99073.16;5988421;23;20118;-64
2022/03/31 02:10:36;;;;;;;13.68;5.10;;;;;;;-4.76;71.21;99057.88;6012050;23;20083;-65
2022/03/31 02:13:03;;;;;;;17.38;5.57;;;;;;;-4.75;71.84;99070.16;6011569;23;20114;-64
2022/03/31 02:15:29;;;;;;;17.10;5.50;;;;;;;-4.85;72.05;99074.13;6011516;23;20027;-65
2022/03/31 02:17:55;;;;;;;16.92;5.22;;;;;;;-4.86;71.82;99077.69;6011892;23;20027;-64
2022/03/31 02:20:27;;;;;;;14.70;5.13;;;;;;;-4.94;71.80;99079.78;5965289;23;20035;-65
2022/03/31 02:22:53;;;;;;;14.10;5.70;;;;;;;-4.96;72.26;99073.75;6037320;23;20023;-65
2022/03/31 02:25:20;;;;;;;14.85;5.35;;;;;;;-4.99;72.89;99063.34;6035387;23;20027;-63
2022/03/31 02:27:50;;;;;;;19.92;5.63;;;;;;;-5.00;73.39;99070.41;5965524;23;20030;-64
2022/03/31 02:30:16;;;;;;;16.77;5.07;;;;;;;-5.00;73.96;99074.81;6034777;23;20031;-65
2022/03/31 02:32:42;;;;;;;15.38;5.50;;;;;;;-5.02;73.65;99076.66;6012098;23;20038;-65
2022/03/31 02:35:09;;;;;;;16.98;5.30;;;;;;;-5.06;74.21;99069.81;6035153;23;20027;-65
2022/03/31 02:37:35;;;;;;;15.57;5.60;;;;;;;-4.98;74.26;99078.22;5990563;23;20083;-65
2022/03/31 02:40:01;;;;;;;16.70;6.30;;;;;;;-5.02;74.23;99072.22;5991351;23;20087;-65
2022/03/31 02:42:28;;;;;;;17.30;5.47;;;;;;;-5.03;74.46;99074.94;6016070;23;20453;-66
2022/03/31 02:44:54;;;;;;;15.80;6.45;;;;;;;-5.02;74.32;99087.19;6037813;23;20035;-65
2022/03/31 02:47:20;;;;;;;14.10;5.38;;;;;;;-5.11;74.72;99076.13;5989552;23;20027;-65
2022/03/31 02:49:47;;;;;;;17.17;6.47;;;;;;;-5.05;75.24;99084.69;5987513;23;20395;-65
2022/03/31 02:52:13;;;;;;;22.58;6.88;;;;;;;-5.02;75.33;99081.91;6015440;23;20050;-65
2022/03/31 02:57:23;;;;;;;17.40;5.85;;;;;;;-5.03;75.48;99080.22;6039617;23;20087;-65
2022/03/31 02:59:49;;;;;;;18.42;6.38;;;;;;;-5.02;75.40;99074.00;6015896;23;20113;-65
2022/03/31 03:02:14;;;;;;;18.40;6.43;;;;;;;-4.91;75.39;99093.69;6016470;23;20030;-65
2022/03/31 03:04:40;;;;;;;14.35;5.95;;;;;;;-4.87;75.06;99089.13;6039482;23;20034;-66
2022/03/31 03:07:06;;;;;;;18.08;6.07;;;;;;;-4.87;75.37;99094.41;6065302;23;20067;-65
2022/03/31 03:09:32;;;;;;;18.50;5.70;;;;;;;-4.83;75.51;99088.06;6016102;23;20018;-65
2022/03/31 03:11:58;;;;;;;13.77;4.90;;;;;;;-4.80;75.16;99087.94;6039940;23;20023;-65
2022/03/31 03:14:24;;;;;;;14.85;4.68;;;;;;;-4.76;75.54;99089.50;6063159;23;20526;-65
2022/03/31 03:16:50;;;;;;;13.65;4.15;;;;;;;-4.70;74.96;99089.25;5992577;23;20031;-64
2022/03/31 03:19:16;;;;;;;12.85;4.72;;;;;;;-4.66;75.71;99090.81;6016394;23;20476;-65
2022/03/31 03:21:43;;;;;;;14.50;4.82;;;;;;;-4.79;75.20;99068.59;6039952;23;20170;-65
2022/03/31 03:24:10;;;;;;;15.48;4.55;;;;;;;-4.63;74.99;99095.09;6039140;23;20023;-65
2022/03/31 03:26:36;;;;;;;15.38;4.70;;;;;;;-4.55;75.26;99097.38;6015869;23;20342;-66
2022/03/31 03:29:02;;;;;;;15.50;5.35;;;;;;;-4.50;74.44;99090.09;6016088;23;20077;-66
2022/03/31 03:31:28;;;;;;;22.60;6.00;;;;;;;-4.33;74.62;99103.38;6016041;23;20114;-65
2022/03/31 03:33:54;;;;;;;17.90;6.13;;;;;;;-4.29;74.26;99099.66;5992624;23;20043;-66
2022/03/31 03:36:20;;;;;;;17.63;6.85;;;;;;;-4.23;73.84;99104.66;6015828;23;20022;-66
2022/03/31 03:38:46;;;;;;;16.20;7.03;;;;;;;-4.22;74.21;99101.06;6016078;23;20033;-65
2022/03/31 03:41:13;;;;;;;16.40;7.05;;;;;;;-4.19;74.58;99095.66;6015424;23;20038;-66
2022/03/31 03:43:42;;;;;;;16.38;7.40;;;;;;;-4.25;74.29;99071.34;6039973;23;20023;-66
2022/03/31 03:46:09;;;;;;;18.38;7.70;;;;;;;-4.07;74.65;99090.72;6039613;23;20083;-66
2022/03/31 03:48:35;;;;;;;17.13;7.53;;;;;;;-3.95;74.17;99103.31;6064840;23;20156;-65
2022/03/31 03:51:01;;;;;;;16.85;7.68;;;;;;;-3.92;73.80;99098.75;5991921;23;20489;-65
2022/03/31 03:53:27;;;;;;;17.83;8.23;;;;;;;-3.85;73.42;99103.75;6039179;23;20054;-66
2022/03/31 03:55:53;;;;;;;22.70;10.27;;;;;;;-3.90;74.43;99110.09;6039705;23;20181;-65
2022/03/31 03:58:19;;;;;;;19.42;7.18;;;;;;;-3.90;74.82;99101.34;6015320;23;20044;-65
2022/03/31 04:00:45;;;;;;;19.48;9.25;;;;;;;-3.84;74.24;99111.56;6015570;23;20031;-65
2022/03/31 04:03:11;;;;;;;19.50;8.70;;;;;;;-3.83;74.52;99107.19;6039110;23;20058;-65
2022/03/31 04:05:38;;;;;;;20.67;9.00;;;;;;;-3.82;74.69;99109.72;6015529;23;20038;-65
2022/03/31 04:08:04;;;;;;;19.38;9.00;;;;;;;-3.80;74.77;99113.16;6015773;23;20106;-65
2022/03/31 04:10:33;;;;;;;17.92;8.98;;;;;;;-3.78;74.69;99106.00;6016000;23;20586;-66
2022/03/31 04:12:59;;;;;;;18.52;8.00;;;;;;;-3.72;74.95;99108.34;6063419;23;20064;-65
2022/03/31 04:15:25;;;;;;;19.08;7.45;;;;;;;-3.65;74.31;99107.13;6015583;23;20505;-65
2022/03/31 04:17:50;;;;;;;18.40;7.43;;;;;;;-3.58;74.20;99117.38;6038741;23;20054;-65
2022/03/31 04:20:17;;;;;;;18.88;8.10;;;;;;;-3.52;74.12;99122.34;6039118;23;20022;-66
2022/03/31 04:22:43;;;;;;;22.92;7.32;;;;;;;-3.50;73.95;99120.50;6037906;23;20031;-65
2022/03/31 04:25:10;;;;;;;19.30;7.25;;;;;;;-3.45;73.88;99123.75;5991580;23;20029;-65
2022/03/31 04:27:38;;;;;;;18.25;6.90;;;;;;;-3.45;74.14;99121.97;6039351;23;20333;-65
2022/03/31 04:30:06;;;;;;;16.45;6.97;;;;;;;-3.37;73.93;99116.28;6039380;23;20061;-66
2022/03/31 04:32:32;;;;;;;17.98;6.28;;;;;;;-3.30;74.38;99128.28;6015877;23;20018;-65
2022/03/31 04:34:58;;;;;;;15.45;7.18;;;;;;;-3.15;73.49;99124.84;6038601;23;20029;-65
2022/03/31 04:37:24;;;;;;;15.60;6.53;;;;;;;-3.10;73.59;99126.44;6015240;23;20074;-65
2022/03/31 04:39:50;;;;;;;16.42;7.30;;;;;;;-2.94;72.98;99116.75;6063013;23;20033;-66
2022/03/31 04:42:16;;;;;;;14.05;6.65;;;;;;;-2.86;73.17;99122.50;6013312;23;20061;-67
2022/03/31 04:44:42;;;;;;;17.25;6.07;;;;;;;-2.70;73.13;99126.06;5989723;23;20030;-66
2022/03/31 04:47:11;;;;;;;16.40;7.10;;;;;;;-2.74;72.59;99121.00;5990147;23;20106;-66
2022/03/31 04:49:37;;;;;;;19.75;6.57;;;;;;;-2.82;73.26;99113.44;5990568;23;20026;-65
2022/03/31 04:52:04;;;;;;;11.90;5.60;;;;;;;-2.53;72.88;99121.63;6017230;23;20019;-66
2022/03/31 04:54:30;;;;;;;14.35;6.40;;;;;;;-2.43;72.06;99130.81;6008589;23;20114;-65
2022/03/31 04:56:56;;;;;;;18.13;6.32;;;;;;;-2.35;71.34;99128.59;6009136;23;20023;-67
2022/03/31 04:59:22;;;;;;;17.00;7.10;;;;;;;-2.27;71.55;99123.72;5991300;23;20349;-67
2022/03/31 05:01:48;;;;;;;17.08;5.95;;;;;;;-2.07;71.28;99132.38;5987946;23;20055;-71
2022/03/31 05:04:15;;;;;;;15.85;5.38;;;;;;;-1.91;70.66;99133.22;5964821;23;20031;-68
2022/03/31 05:06:41;;;;;;;12.43;4.78;;;;;;;-1.64;70.24;99129.97;5961821;23;20031;-67
2022/03/31 05:09:07;;;;;;;15.25;4.53;;;;;;;-1.52;69.31;99126.63;5984871;23;20034;-67
2022/03/31 05:11:34;;;;;;;15.68;5.47;;;;;;;-1.36;68.62;99135.38;5984870;23;20101;-66
2022/03/31 05:14:00;;;;;;;13.57;4.53;;;;;;;-1.37;69.09;99141.63;5987517;23;20492;-67
2022/03/31 05:16:26;;;;;;;13.75;4.75;;;;;;;-1.13;68.09;99146.44;5964176;23;20082;-66
2022/03/31 05:18:51;;;;;;;17.27;5.78;;;;;;;-1.04;67.75;99146.75;5979354;23;20034;-75
2022/03/31 05:21:18;;;;;;;12.82;4.40;;;;;;;-0.91;67.40;99146.91;5968116;23;20034;-66
2022/03/31 05:23:44;;;;;;;17.10;5.60;;;;;;;-1.05;67.66;99144.22;5984412;23;20023;-66
2022/03/31 05:26:10;;;;;;;13.13;4.32;;;;;;;-0.78;66.99;99147.00;6010757;23;20110;-69
2022/03/31 05:28:36;;;;;;;10.70;4.35;;;;;;;-0.46;66.26;99141.53;5990872;23;20019;-76
2022/03/31 05:31:03;;;;;;;16.65;4.72;;;;;;;-0.30;65.19;99140.47;5965385;23;20458;-67
2022/03/31 05:33:29;;;;;;;13.90;5.15;;;;;;;-0.35;65.46;99139.94;5964616;23;20516;-68
2022/03/31 05:35:55;;;;;;;14.75;4.97;;;;;;;0.01;65.08;99141.22;6010820;23;20053;-67
2022/03/31 05:38:21;;;;;;;10.27;4.78;;;;;;;0.09;64.11;99143.38;5989289;23;20027;-66
2022/03/31 05:40:47;;;;;;;15.50;5.55;;;;;;;0.56;63.74;99148.28;6015436;23;20027;-66
2022/03/31 05:43:13;;;;;;;15.75;5.50;;;;;;;0.69;61.56;99132.38;5989560;23;20038;-66
2022/03/31 05:45:39;;;;;;;20.48;5.53;;;;;;;0.84;61.87;99152.66;5988978;23;20039;-65
2022/03/31 05:48:05;;;;;;;13.18;5.18;;;;;;;0.57;62.67;99144.69;5989665;23;20023;-64
2022/03/31 05:50:31;;;;;;;14.38;5.53;;;;;;;0.68;62.60;99150.13;5990647;23;20074;-66
2022/03/31 05:52:57;;;;;;;14.93;5.78;;;;;;;1.10;61.86;99144.72;6016469;23;20417;-67
2022/03/31 05:55:23;;;;;;;14.70;5.70;;;;;;;0.55;62.94;99153.69;6017510;23;20033;-68
2022/03/31 05:57:49;;;;;;;16.85;5.00;;;;;;;0.17;64.62;99152.56;6017635;23;20031;-66
2022/03/31 06:00:18;;;;;;;15.93;6.18;;;;;;;0.30;64.90;99162.44;6040898;23;20034;-67
2022/03/31 06:02:46;;;;;;;14.80;5.13;;;;;;;0.96;62.65;99164.28;6041459;23;20030;-66
2022/03/31 06:05:12;;;;;;;20.35;5.10;;;;;;;2.26;58.99;99170.34;6017544;23;20030;-67
2022/03/31 06:07:38;;;;;;;12.15;4.30;;;;;;;2.29;57.57;99159.44;6041857;23;20023;-66
2022/03/31 06:10:05;;;;;;;14.38;4.43;;;;;;;1.85;59.10;99160.81;6017722;23;20062;-65
2022/03/31 06:12:31;;;;;;;10.05;4.50;;;;;;;1.12;62.16;99167.59;5994289;23;20323;-65
2022/03/31 06:14:57;;;;;;;12.10;4.13;;;;;;;1.92;60.23;99167.41;6017107;23;20031;-66
2022/03/31 06:17:23;;;;;;;15.75;4.78;;;;;;;2.13;59.79;99176.56;6017824;23;20338;-66
2022/03/31 06:19:49;;;;;;;13.70;5.63;;;;;;;2.42;58.89;99176.28;5993836;23;20039;-66
2022/03/31 06:22:15;;;;;;;16.48;4.72;;;;;;;2.11;59.48;99174.97;6018299;23;20030;-65
2022/03/31 06:24:41;;;;;;;12.50;3.65;;;;;;;2.42;58.93;99186.94;6039797;23;20434;-66
2022/03/31 06:27:08;;;;;;;10.32;3.70;;;;;;;2.87;57.59;99187.19;5993102;23;20480;-66
2022/03/31 06:29:35;;;;;;;18.00;3.97;;;;;;;3.06;56.79;99192.00;6016178;23;20031;-67
2022/03/31 06:32:02;;;;;;;11.35;3.45;;;;;;;2.80;58.20;99197.47;6040178;23;20025;-66
2022/03/31 06:34:28;;;;;;;13.30;3.80;;;;;;;3.34;56.69;99201.47;6063760;23;20045;-66
2022/03/31 06:36:55;;;;;;;16.17;3.83;;;;;;;3.33;56.47;99194.44;6016583;23;20083;-66
2022/03/31 06:39:21;;;;;;;13.13;3.20;;;;;;;3.21;57.31;99198.00;6016337;23;20091;-66
2022/03/31 06:41:47;;;;;;;11.90;3.42;;;;;;;2.76;58.65;99189.81;5993254;23;20367;-66
2022/03/31 06:44:15;;;;;;;12.15;3.28;;;;;;;2.22;59.84;99179.53;6016565;23;20034;-65
2022/03/31 06:46:42;;;;;;;13.90;3.92;;;;;;;2.31;60.43;99184.22;5993920;23;20022;-67
2022/03/31 06:49:09;;;;;;;11.23;3.50;;;;;;;2.87;58.88;99189.88;6016284;23;20030;-67
2022/03/31 06:51:35;;;;;;;19.00;3.08;;;;;;;2.86;58.64;99169.47;6012600;23;20027;-68
2022/03/31 06:54:02;;;;;;;11.90;3.22;;;;;;;3.28;57.37;99191.25;6004876;23;20033;-67
2022/03/31 06:56:29;;;;;;;19.40;3.60;;;;;;;3.38;57.34;99192.25;6030134;23;20107;-67
2022/03/31 06:58:56;;;;;;;10.60;2.90;;;;;;;3.22;57.44;99200.59;6016042;23;20035;-68
2022/03/31 07:01:23;;;;;;;14.88;3.55;;;;;;;3.36;57.20;99186.16;6015104;23;20023;-71
2022/03/31 07:03:49;;;;;;;11.65;3.38;;;;;;;2.70;58.17;99180.44;6038293;23;20106;-67
2022/03/31 07:06:16;;;;;;;14.10;3.45;;;;;;;2.51;59.97;99175.59;6038876;23;20034;-67
2022/03/31 07:08:42;;;;;;;9.65;2.72;;;;;;;2.62;59.83;99175.66;6016247;23;20031;-68
2022/03/31 07:11:10;;;;;;;11.93;3.08;;;;;;;2.44;60.70;99176.16;6015490;23;20033;-66
2022/03/31 07:13:37;;;;;;;14.70;3.15;;;;;;;3.00;59.08;99177.31;6015548;23;20050;-68
2022/03/31 07:16:03;;;;;;;10.48;3.30;;;;;;;2.93;58.68;99186.75;5991800;23;20091;-67
2022/03/31 07:18:30;;;;;;;12.95;3.42;;;;;;;3.09;58.34;99179.28;6015681;23;20043;-67
2022/03/31 07:20:59;;;;;;;15.63;3.70;;;;;;;3.45;57.09;99184.63;6038519;23;20022;-67
2022/03/31 07:23:26;;;;;;;15.32;3.25;;;;;;;4.07;55.45;99182.38;5991201;23;20026;-67
2022/03/31 07:25:56;;;;;;;13.88;3.50;;;;;;;4.00;54.98;99178.50;6064053;23;20072;-67
2022/03/31 07:28:23;;;;;;;12.73;3.35;;;;;;;4.43;54.00;99180.41;6038424;23;20023;-67
2022/03/31 07:30:50;;;;;;;10.40;3.10;;;;;;;4.54;53.88;99182.22;6037802;23;20038;-67
2022/03/31 07:33:18;;;;;;;18.33;3.63;;;;;;;4.36;54.19;99184.56;6014670;23;20022;-67
2022/03/31 07:35:47;;;;;;;15.18;3.45;;;;;;;4.13;54.05;99182.84;5990688;23;20033;-67
2022/03/31 07:38:13;;;;;;;16.75;3.58;;;;;;;3.85;55.25;99185.06;6015651;23;20026;-66
2022/03/31 07:40:40;;;;;;;11.32;3.22;;;;;;;3.83;54.80;99176.28;6015332;23;20113;-66
2022/03/31 07:43:06;;;;;;;16.10;3.45;;;;;;;3.25;55.47;99180.78;5991915;23;20043;-69
2022/03/31 07:45:34;;;;;;;13.65;3.05;;;;;;;3.25;55.88;99181.63;6016052;23;20027;-67
2022/03/31 07:48:01;;;;;;;17.23;4.07;;;;;;;2.92;57.40;99182.34;6014388;23;20049;-70
2022/03/31 07:50:28;;;;;;;13.68;3.80;;;;;;;2.99;57.66;99196.94;5991792;23;20022;-67
2022/03/31 07:52:55;;;;;;;14.50;3.47;;;;;;;3.08;57.11;99193.59;5991587;23;20079;-68
2022/03/31 07:55:21;;;;;;;13.60;4.82;;;;;;;3.09;56.91;99192.63;6014674;23;20183;-68
2022/03/31 07:57:48;;;;;;;11.85;3.08;;;;;;;2.96;57.17;99186.50;6014942;23;20117;-68
2022/03/31 08:00:17;;;;;;;8.27;2.75;;;;;;;3.07;57.66;99186.56;5990576;23;20075;-68
2022/03/31 08:02:47;;;;;;;12.40;2.97;;;;;;;2.83;57.81;99185.72;5992179;23;20101;-68
2022/03/31 08:05:22;;;;;;;12.90;3.70;;;;;;;2.98;57.69;99195.25;6037940;23;20098;-68
2022/03/31 08:07:49;;;;;;;13.07;3.90;;;;;;;2.94;57.60;99191.13;6014024;23;20023;-67
2022/03/31 08:10:16;;;;;;;14.25;3.42;;;;;;;2.75;58.16;99188.13;6038681;23;20027;-68
2022/03/31 08:12:44;;;;;;;11.40;3.40;;;;;;;2.77;58.16;99191.50;6015252;23;20063;-67
2022/03/31 08:15:12;;;;;;;12.32;3.60;;;;;;;2.53;59.05;99184.34;6015160;23;20117;-67
2022/03/31 08:17:38;;;;;;;9.27;3.17;;;;;;;2.89;58.43;99187.94;6015494;23;20114;-68
2022/03/31 08:20:07;;;;;;;9.50;3.13;;;;;;;2.85;58.57;99186.44;6039560;23;20018;-68
2022/03/31 08:22:33;;;;;;;13.13;3.70;;;;;;;2.97;58.21;99193.56;5993441;23;20029;-69
2022/03/31 08:25:00;;;;;;;10.85;3.40;;;;;;;2.76;59.21;99187.13;5993155;23;20133;-69
2022/03/31 08:27:26;;;;;;;42.95;6.07;;;;;;;2.94;61.63;99191.13;6040228;23;20413;-68
2022/03/31 08:29:52;;;;;;;39.00;6.50;;;;;;;2.88;60.84;99178.22;6015314;23;20041;-68
2022/03/31 08:32:18;;;;;;;18.40;3.90;;;;;;;2.89;59.53;99179.94;6015994;23;20027;-68
2022/03/31 08:34:44;;;;;;;12.18;3.67;;;;;;;2.65;60.15;99174.59;6015419;23;20018;-68
2022/03/31 08:37:10;;;;;;;13.07;3.88;;;;;;;2.61;60.39;99157.94;6063082;23;20022;-68
2022/03/31 08:39:36;;;;;;;13.20;4.32;;;;;;;2.69;60.11;99177.88;5991289;23;20455;-68
2022/03/31 08:42:04;;;;;;;25.35;3.60;;;;;;;2.62;59.89;99143.63;6038738;23;20050;-68
2022/03/31 08:44:30;;;;;;;11.52;3.85;;;;;;;2.65;59.88;99171.91;6037552;23;20027;-70
2022/03/31 08:46:56;;;;;;;10.15;3.17;;;;;;;2.62;59.73;99173.00;5991616;23;20105;-68
2022/03/31 08:49:22;;;;;;;12.27;4.20;;;;;;;2.65;59.88;99167.44;6038614;23;20389;-68
2022/03/31 08:51:48;;;;;;;16.48;4.20;;;;;;;3.01;58.93;99162.16;6014514;23;20054;-68
2022/03/31 08:54:14;;;;;;;11.57;3.60;;;;;;;2.86;58.87;99164.16;5968010;23;20346;-68
2022/03/31 08:56:41;;;;;;;18.95;3.47;;;;;;;3.35;57.99;99147.06;6015703;23;20019;-70
2022/03/31 08:59:07;;;;;;;11.00;3.60;;;;;;;3.39;57.67;99152.03;6014965;23;20041;-69
2022/03/31 09:01:34;;;;;;;10.95;3.25;;;;;;;3.36;57.34;99163.00;5967504;23;20522;-68
2022/03/31 09:04:00;;;;;;;15.43;3.70;;;;;;;3.31;57.85;99142.94;6038779;23;20105;-67
2022/03/31 09:06:30;;;;;;;22.48;4.18;;;;;;;2.95;59.04;99166.09;6038950;23;20091;-70
2022/03/31 09:08:57;;;;;;;;;;;;;;;2.83;59.02;99159.88;6016017;23;20342;-70
2022/03/31 09:11:27;;;;;;;9.98;2.95;;;;;;;2.55;59.37;99158.38;6062780;23;20008;-69
2022/03/31 09:13:58;;;;;;;14.90;4.07;;;;;;;2.86;59.13;99150.78;6038389;23;20074;-69
2022/03/31 09:16:35;;;;;;;12.30;3.55;;;;;;;2.72;58.40;99156.31;5990656;23;20061;-68
2022/03/31 09:19:03;;;;;;;12.85;3.25;;;;;;;2.78;58.63;99129.16;6014902;23;20091;-68
2022/03/31 09:21:30;;;;;;;33.78;3.92;;;;;;;2.94;57.47;99145.72;6037770;23;20026;-68
2022/03/31 09:23:57;;;;;;;14.23;2.65;;;;;;;3.12;57.32;99149.69;5991041;23;20050;-68
2022/03/31 09:26:27;;;;;;;9.48;3.30;;;;;;;3.12;56.21;99146.16;6014140;23;20019;-67
2022/03/31 09:28:54;;;;;;;21.80;4.05;;;;;;;3.43;55.94;99138.44;6038089;23;20445;-68
2022/03/31 09:31:24;;;;;;;14.27;3.42;;;;;;;3.99;54.69;99139.34;6013699;23;20021;-67
2022/03/31 09:33:55;;;;;;;10.75;3.35;;;;;;;3.52;53.27;99135.09;5990999;23;20113;-68
2022/03/31 09:36:22;;;;;;;12.10;3.30;;;;;;;3.20;53.28;99134.88;6037544;23;20054;-67
2022/03/31 09:38:56;;;;;;;27.75;4.60;;;;;;;3.59;53.43;99129.13;5989766;23;20365;-69
2022/03/31 09:41:26;;;;;;;10.80;3.55;;;;;;;3.67;52.94;99122.34;6014976;23;20132;-69
2022/03/31 09:43:54;;;;;;;13.70;3.10;;;;;;;3.90;51.88;99128.53;6014578;23;20037;-69
2022/03/31 09:46:26;;;;;;;9.50;3.00;;;;;;;3.29;53.31;99132.38;6038135;23;20178;-68
2022/03/31 09:48:53;;;;;;;81.00;9.10;;;;;;;3.33;57.10;99124.97;6037786;23;20362;-67
2022/03/31 09:51:21;;;;;;;45.40;5.43;;;;;;;3.28;57.88;99127.13;6014175;23;20022;-68
2022/03/31 09:53:48;;;;;;;10.60;3.17;;;;;;;3.00;55.46;99118.56;5990426;23;20109;-68
2022/03/31 09:56:19;;;;;;;10.95;3.30;;;;;;;3.12;55.36;99117.63;6037381;23;20027;-68
2022/03/31 09:58:46;;;;;;;11.48;3.65;;;;;;;3.17;55.21;99125.28;6014964;23;20030;-68
2022/03/31 10:01:16;;;;;;;13.20;2.90;;;;;;;3.21;54.95;99115.22;6016535;23;20050;-68
2022/03/31 10:03:42;;;;;;;9.55;2.90;;;;;;;3.22;54.61;99116.91;6015975;23;20030;-68
2022/03/31 10:06:08;;;;;;;12.23;3.20;;;;;;;3.67;54.26;99092.94;5991816;23;20126;-68
2022/03/31 10:08:39;;;;;;;10.15;2.97;;;;;;;3.96;52.33;99104.00;6039032;23;20022;-68
2022/03/31 10:11:06;;;;;;;12.73;3.13;;;;;;;3.30;52.94;99114.53;5992940;23;20122;-68
2022/03/31 10:13:42;;;;;;;9.55;3.28;;;;;;;2.92;53.13;99115.59;6039151;23;20044;-68
2022/03/31 10:16:13;;;;;;;17.55;3.58;;;;;;;3.23;53.10;99102.59;6018277;23;20022;-65
2022/03/31 10:18:40;;;;;;;9.65;2.90;;;;;;;3.18;53.75;99105.63;5992905;23;20430;-67
2022/03/31 10:21:06;;;;;;;11.00;3.28;;;;;;;3.12;53.18;99106.94;6016321;23;20098;-67
2022/03/31 10:26:28;;;;;;;14.45;3.53;;;;;;;3.29;54.48;99111.00;6015961;23;20110;-71
2022/03/31 10:28:57;;;;;;;10.82;3.10;;;;;;;2.78;56.27;99113.13;5989787;23;20138;-66
2022/03/31 10:31:44;;;;;;;9.23;3.15;;;;;;;2.39;58.91;99123.16;6036512;23;20472;-66
2022/03/31 10:34:11;;;;;;;10.52;2.70;;;;;;;2.27;61.29;99116.06;6012605;23;20027;-66
2022/03/31 10:36:39;;;;;;;8.23;2.65;;;;;;;2.19;61.52;99111.25;5989459;23;20026;-66
2022/03/31 10:39:14;;;;;;;9.32;2.60;;;;;;;1.87;62.19;99094.94;6038165;23;20373;-74
2022/03/31 10:41:42;;;;;;;8.65;2.70;;;;;;;1.91;63.92;99109.75;6017860;23;20440;-67
2022/03/31 10:44:11;;;;;;;10.43;2.78;;;;;;;1.88;65.28;99118.81;6012558;23;20030;-67
2022/03/31 10:46:38;;;;;;;9.27;3.03;;;;;;;1.76;66.06;99113.53;6036467;23;20061;-66
2022/03/31 10:49:09;;;;;;;11.32;2.80;;;;;;;1.78;66.92;99116.91;6012852;23;20023;-66
2022/03/31 10:51:37;;;;;;;9.20;2.85;;;;;;;1.66;65.70;99107.97;5985001;23;20530;-69
2022/03/31 10:54:04;;;;;;;8.95;3.17;;;;;;;1.65;65.95;99112.47;5985651;23;20090;-66
2022/03/31 10:56:31;;;;;;;9.88;3.00;;;;;;;1.73;66.67;99105.75;6010231;23;20112;-65
2022/03/31 10:59:02;;;;;;;10.48;3.17;;;;;;;1.77;66.59;99100.06;6034011;23;20035;-65
2022/03/31 11:01:36;;;;;;;11.85;3.05;;;;;;;1.69;65.64;99097.97;6033795;23;20128;-65
2022/03/31 11:04:04;;;;;;;9.15;2.92;;;;;;;1.93;65.08;99099.81;6009467;23;20023;-65
2022/03/31 11:06:30;;;;;;;9.85;2.67;;;;;;;1.84;64.86;99098.69;5986972;23;20030;-65
2022/03/31 11:08:56;;;;;;;11.45;3.30;;;;;;;1.90;64.79;99102.69;5962908;23;20031;-65
2022/03/31 11:11:24;;;;;;;9.50;3.03;;;;;;;2.10;65.44;99094.13;6009116;23;20685;-65
2022/03/31 11:13:51;;;;;;;10.10;2.63;;;;;;;2.06;64.47;99089.97;6009547;23;20053;-65
2022/03/31 11:16:18;;;;;;;12.68;3.50;;;;;;;1.88;65.71;99097.50;5984835;23;20038;-66
2022/03/31 11:18:59;;;;;;;10.68;3.08;;;;;;;1.79;66.41;99081.28;5986173;23;20122;-65
2022/03/31 11:21:33;;;;;;;8.50;2.65;;;;;;;1.97;67.04;99093.28;5940937;23;20445;-65
2022/03/31 11:23:59;;;;;;;8.60;3.28;;;;;;;2.04;66.96;99091.03;5962217;23;20023;-65
2022/03/31 11:26:30;;;;;;;11.93;3.83;;;;;;;1.90;68.50;99089.38;5963495;23;20134;-65
2022/03/31 11:28:56;;;;;;;10.70;3.30;;;;;;;1.94;67.78;99088.22;5986724;23;20039;-65
2022/03/31 11:31:22;;;;;;;9.38;2.78;;;;;;;1.92;67.99;99082.97;5987991;23;20088;-66
2022/03/31 11:33:49;;;;;;;9.18;3.17;;;;;;;1.63;68.21;99071.75;5963860;23;20031;-65